Latest Coastal Weather Observations for Barrow Island

IDW60701

Issued at 7:53 am WST Saturday 25 February 2017 (issued every 10 minutes, with the page automatically refreshed every 10 minutes)

About coastal observations | Map of coastal stations | Coastal observations for WA | Marine services | Other Formats
Station Details ID: 005094 Name: BARROW ISLAND AIRPORT Lat: -20.87 Lon: 115.41 Height: 6.4 m
Data from the previous 72 hours. | See also: Recent months at Barrow Island
Date/Time
WST
Temp
°C
Wind Pressure Rain since
9am
mm
Weather Cloud Vis
km
Sea
Height
m
Swell
Dir  Spd
kts
Gust
kts
hPa Trend Height
m
Period
s
Dir
25/07:30am 30.9 S 20 23 1010.3 - 0.0 - - - - - - -
25/07:00am 30.8 S 22 27 1010.0 - 0.0 - - - - - - -
25/06:30am 30.6 S 21 26 1009.7 - 0.0 - - - - - - -
25/06:00am 30.8 SSW 17 23 1009.1 - 0.0 - - - - - - -
25/05:30am 31.0 SSW 21 25 1008.9 - 0.0 - - - - - - -
25/05:00am 30.7 SSW 21 25 1009.0 - 0.0 - - - - - - -
25/04:30am 30.5 SSW 19 23 1009.4 - 0.0 - - - - - - -
25/04:00am 30.2 SW 21 25 1009.2 - 0.0 - - - - - - -
25/03:30am 30.5 SSW 19 24 1009.5 - 0.0 - - - - - - -
25/03:00am 30.6 SSW 13 15 1010.2 - 0.0 - - - - - - -
25/02:30am 30.4 SSW 13 15 1010.3 - 0.0 - - - - - - -
25/02:00am 30.5 SW 12 14 1010.2 - 0.0 - - - - - - -
25/01:30am 30.8 SW 13 16 1010.4 - 0.0 - - - - - - -
25/01:00am 31.1 SW 16 19 1010.5 - 0.0 - - - - - - -
25/12:30am 31.8 SW 13 16 1010.5 - 0.0 - - - - - - -
25/12:00am 31.7 SW 16 19 1010.8 - 0.0 - - - - - - -
 
Date/Time
WST
Temp
°C
Wind Pressure Rain since
9am
mm
Weather Cloud Vis
km
Sea
Height
m
Swell
Dir  Spd
kts
Gust
kts
hPa Trend Height
m
Period
s
Dir
24/11:30pm 31.3 SW 17 21 1011.1 - 0.0 - - - - - - -
24/11:00pm 30.9 SSW 14 16 1011.7 - 0.0 - - - - - - -
24/10:30pm 30.9 SW 9 11 1012.0 - 0.0 - - - - - - -
24/10:00pm 30.9 SW 12 15 1012.0 - 0.0 - - - - - - -
24/09:30pm 30.6 SW 12 15 1011.8 - 0.0 - - - - - - -
24/09:00pm 30.7 WSW 12 15 1011.6 - 0.0 - - - - - - -
24/08:30pm 30.8 WSW 12 15 1011.3 - 0.0 - - - - - - -
24/08:00pm 30.9 WSW 11 13 1010.9 - 0.0 - - - - - - -
24/07:30pm 31.1 W 9 11 1010.6 - 0.0 - - - - - - -
24/07:00pm 31.5 W 8 10 1010.4 - 0.0 - - - - - - -
24/06:30pm 33.0 W 8 9 1010.3 - 0.0 - - - - - - -
24/06:00pm 34.2 WSW 9 11 1010.3 - 0.0 - - - - - - -
24/05:30pm 35.1 WSW 8 11 1010.1 - 0.0 - - - - - - -
24/05:00pm 35.6 SSE 4 5 1010.1 - 0.0 - - - - - - -
24/04:30pm 35.4 ESE 3 4 1010.2 - 0.0 - - - - - - -
24/04:00pm 34.7 S 5 6 1010.4 - 0.0 - - - - - - -
24/03:30pm 34.8 S 5 7 1010.6 - 0.0 - - - - - - -
24/03:00pm 34.9 S 5 7 1010.7 - 0.0 - - - - - - -
24/02:30pm 34.7 SSE 4 6 1010.9 - 0.0 - - - - - - -
24/02:00pm 34.1 SSE 5 7 1011.3 - 0.0 - - - - - - -
24/01:30pm 34.1 SSE 5 6 1011.6 - 0.0 - - - - - - -
24/01:00pm 33.8 SSE 5 7 1012.0 - 0.0 - - - - - - -
24/12:30pm 33.7 SSE 6 7 1012.4 - 0.0 - - - - - - -
24/12:00pm 33.8 SE 8 9 1012.8 - 0.0 - - - - - - -
24/11:30am 34.0 SE 9 11 1013.1 - 0.0 - - - - - - -
24/11:00am 34.0 SE 9 11 1013.4 - 0.0 - - - - - - -
24/10:30am 33.1 SSE 9 12 1013.5 - 0.0 - - - - - - -
24/10:00am 32.4 SSE 11 13 1013.9 - 0.0 - - - - - - -
24/09:30am 31.8 SSE 11 13 1014.0 - 0.0 - - - - - - -
24/09:00am 31.6 SSE 13 15 1014.1 - 0.0 - - - - - - -
24/08:30am 30.9 SSE 13 16 1014.1 - 0.0 - - - - - - -
24/08:00am 29.7 SE 15 17 1014.0 - 0.0 - - - - - - -
24/07:30am 29.1 SSE 15 17 1013.8 - 0.0 - - - - - - -
24/07:00am 29.2 S 15 17 1013.4 - 0.0 - - - - - - -
24/06:30am 29.2 S 13 15 1013.1 - 0.0 - - - - - - -
24/06:00am 29.2 S 14 16 1012.9 - 0.0 - - - - - - -
24/05:30am 29.4 S 14 16 1012.8 - 0.0 - - - - - - -
24/05:00am 29.4 S 14 16 1012.8 - 0.0 - - - - - - -
24/04:30am 29.1 SSW 13 15 1012.5 - 0.0 - - - - - - -
24/04:00am 29.2 SSW 13 14 1012.5 - 0.0 - - - - - - -
24/03:30am 28.8 SW 10 11 1012.2 - 0.0 - - - - - - -
24/03:00am 28.7 SW 11 13 1011.9 - 0.0 - - - - - - -
24/02:30am 29.2 SSW 13 15 1011.9 - 0.0 - - - - - - -
24/02:00am 29.5 SSW 12 14 1012.2 - 0.0 - - - - - - -
24/01:30am 29.5 SSW 10 11 1012.5 - 0.0 - - - - - - -
24/01:00am 29.1 SW 5 7 1012.9 - 0.0 - - - - - - -
24/12:30am 29.4 S 8 10 1013.0 - 0.0 - - - - - - -
24/12:00am 29.9 SSE 7 11 1013.3 - 0.0 - - - - - - -
 
Date/Time
WST
Temp
°C
Wind Pressure Rain since
9am
mm
Weather Cloud Vis
km
Sea
Height
m
Swell
Dir  Spd
kts
Gust
kts
hPa Trend Height
m
Period
s
Dir
23/11:30pm 29.7 SE 6 8 1013.2 - 0.0 - - - - - - -
23/11:00pm 29.9 SE 4 6 1013.4 - 0.0 - - - - - - -
23/10:30pm 30.3 SE 7 9 1013.3 - 0.0 - - - - - - -
23/10:00pm 30.4 ENE 3 5 1012.9 - 0.0 - - - - - - -
23/09:30pm 30.7 ENE 9 11 1012.9 - 0.0 - - - - - - -
23/09:00pm 30.3 ENE 15 19 1012.7 - 0.0 - - - - - - -
23/08:30pm 31.5 E 18 21 1012.8 - 0.0 - - - - - - -
23/08:00pm 31.2 ESE 20 25 1013.0 - 0.0 - - - - - - -
23/07:30pm 30.5 ESE 23 27 1012.9 - 0.0 - - - - - - -
23/07:00pm 30.3 SE 22 26 1012.8 - 0.0 - - - - - - -
23/06:30pm 30.3 SE 22 27 1013.1 - 0.0 - - - - - - -
23/06:21pm 29.9 SE 22 26 1013.1 - 0.0 - - - - - - -
23/06:00pm 29.4 E 20 30 1013.0 - 0.0 - - - - - - -
23/05:57pm 30.5 E 17 28 1012.9 - 0.0 - - - - - - -
23/05:30pm 30.4 E 14 18 1012.1 - 0.0 - - - - - - -
23/05:00pm 30.6 E 20 24 1011.8 - 0.0 - - - - - - -
23/04:41pm 31.5 E 20 25 1011.7 - 0.0 - - - - - - -
23/04:30pm 32.6 NE 15 17 1011.2 - 0.0 - - - - - - -
23/04:00pm 32.7 NE 14 16 1010.7 - 0.0 - - - - - - -
23/03:30pm 33.3 NE 13 15 1010.5 - 0.0 - - - - - - -
23/03:00pm 32.9 ENE 13 15 1010.4 - 0.0 - - - - - - -
23/02:30pm 32.9 ENE 12 15 1010.4 - 0.0 - - - - - - -
23/02:00pm 32.9 ENE 9 10 1010.6 - 0.0 - - - - - - -
23/01:30pm 32.9 E 8 9 1011.0 - 0.0 - - - - - - -
23/01:00pm 32.9 E 7 9 1011.4 - 0.0 - - - - - - -
23/12:30pm 32.7 ENE 8 9 1011.6 - 0.0 - - - - - - -
23/12:00pm 32.4 ENE 12 13 1011.9 - 0.0 - - - - - - -
23/11:30am 32.4 ENE 10 12 1012.0 - 0.0 - - - - - - -
23/11:00am 32.2 ENE 9 11 1012.1 - 0.0 - - - - - - -
23/10:30am 32.1 ENE 9 11 1012.2 - 0.0 - - - - - - -
23/10:00am 32.3 E 8 10 1012.3 - 0.0 - - - - - - -
23/09:30am 32.0 SE 9 11 1012.3 - 0.0 - - - - - - -
23/09:00am 31.7 S 9 11 1012.0 - 0.0 - - - - - - -
23/08:30am 31.3 S 10 11 1011.9 - 0.0 - - - - - - -
23/08:00am 30.7 S 11 12 1011.7 - 0.0 - - - - - - -
23/07:30am 30.2 SSE 13 14 1011.5 - 0.0 - - - - - - -
23/07:00am 29.6 SSE 13 15 1011.1 - 0.0 - - - - - - -
23/06:30am 29.4 S 14 16 1010.8 - 0.0 - - - - - - -
23/06:00am 29.5 S 14 17 1010.7 - 0.0 - - - - - - -
23/05:30am 29.4 S 14 16 1010.3 - 0.0 - - - - - - -
23/05:00am 29.7 S 15 17 1010.4 - 0.0 - - - - - - -
23/04:30am 30.1 S 17 19 1010.3 - 0.0 - - - - - - -
23/04:00am 30.4 S 17 19 1010.3 - 0.0 - - - - - - -
23/03:30am 30.3 S 16 18 1010.0 - 0.0 - - - - - - -
23/03:00am 30.3 S 16 19 1010.0 - 0.0 - - - - - - -
23/02:30am 30.7 S 16 18 1010.2 - 0.0 - - - - - - -
23/02:00am 30.6 S 15 17 1010.3 - 0.0 - - - - - - -
23/01:30am 31.0 S 16 19 1010.6 - 0.0 - - - - - - -
23/01:00am 31.1 S 16 18 1010.8 - 0.0 - - - - - - -
23/12:30am 31.4 S 17 20 1010.9 - 0.0 - - - - - - -
23/12:00am 31.3 SSW 17 21 1011.0 - 0.0 - - - - - - -
 
Date/Time
WST
Temp
°C
Wind Pressure Rain since
9am
mm
Weather Cloud Vis
km
Sea
Height
m
Swell
Dir  Spd
kts
Gust
kts
hPa Trend Height
m
Period
s
Dir
22/11:30pm 31.1 SSW 15 18 1011.4 - 0.0 - - - - - - -
22/11:00pm 30.8 SSW 17 20 1011.5 - 0.0 - - - - - - -
22/10:30pm 30.7 SW 16 19 1011.6 - 0.0 - - - - - - -
22/10:00pm 30.5 SW 17 20 1011.4 - 0.0 - - - - - - -
22/09:30pm 30.3 WSW 13 16 1011.3 - 0.0 - - - - - - -
22/09:00pm 30.3 WSW 12 17 1011.2 - 0.0 - - - - - - -
22/08:30pm 30.3 WSW 12 15 1011.0 - 0.0 - - - - - - -
22/08:00pm 30.6 WSW 14 19 1010.6 - 0.0 - - - - - - -
22/07:30pm 30.7 WSW 15 19 1010.0 - 0.0 - - - - - - -
22/07:00pm 31.0 WSW 16 21 1009.6 - 0.0 - - - - - - -
22/06:30pm 31.6 WSW 16 21 1009.4 - 0.0 - - - - - - -
22/06:00pm 32.4 WSW 17 21 1009.1 - 0.0 - - - - - - -
22/05:30pm 33.0 SW 17 20 1009.1 - 0.0 - - - - - - -
22/05:00pm 33.9 WSW 15 18 1008.8 - 0.0 - - - - - - -
22/04:30pm 34.1 WSW 15 18 1008.9 - 0.0 - - - - - - -
22/04:00pm 35.2 SW 15 17 1008.9 - 0.0 - - - - - - -
22/03:30pm 35.2 SW 15 17 1009.0 - 0.0 - - - - - - -
22/03:00pm 34.8 SSW 12 13 1009.3 - 0.0 - - - - - - -
22/02:30pm 34.6 SSW 11 13 1009.5 - 0.0 - - - - - - -
22/02:00pm 34.6 SSW 11 13 1009.8 - 0.0 - - - - - - -
22/01:30pm 34.2 SSW 10 12 1010.0 - 0.0 - - - - - - -
22/01:00pm 33.8 SSW 10 13 1010.4 - 0.0 - - - - - - -
22/12:30pm 34.1 S 11 12 1010.7 - 0.0 - - - - - - -
22/12:00pm 33.7 S 10 12 1011.0 - 0.0 - - - - - - -
22/11:30am 33.8 S 11 12 1011.2 - 0.0 - - - - - - -
22/11:00am 33.2 S 11 12 1011.4 - 0.0 - - - - - - -
22/10:30am 33.3 S 11 13 1011.7 - 0.0 - - - - - - -
22/10:00am 32.4 S 12 14 1011.9 - 0.0 - - - - - - -
22/09:30am 32.1 S 13 15 1011.9 - 0.0 - - - - - - -
22/09:00am 31.8 SSE 13 15 1011.9 - 0.0 - - - - - - -
22/08:30am 31.4 SSE 15 17 1011.8 - 0.0 - - - - - - -
22/08:00am 31.0 S 17 19 1011.5 - 0.0 - - - - - - -

Other Formats:

Comma delimited format used in spreadsheet applications
http://www.bom.gov.au/fwo/IDW60701/IDW60701.95304.axf

JavaScript Object Notation format (JSON) in row-major order
http://www.bom.gov.au/fwo/IDW60701/IDW60701.95304.json